DLH785 EDDF-LIMJ
Flight info
| Callsign | DLH785 |
|---|---|
| Flight time | N/A |
| Altitude | 33000 |
| Route | ANEKI2L/18 ANEKI Y163 NATOR DCT TRA DCT RIPUS DCT GERSA DCT SOSON DCT ODINA M727 SRN M858 VOG |
| Aircraft | A20N/M-SDE2E3FGHIRWXY/LB1 |
Departure
| Time | N/A |
|---|---|
| Airport | Frankfurt Main Airport (EDDF) |
Arrival
| Time | 2026-04-21 20:05 |
|---|---|
| Airport | Genoa Cristoforo Colombo Airport (LIMJ) |
| Time | Latitude | Longitude | Altitude | Speed | Heading |
|---|---|---|---|---|---|
| 2026-04-21 19:38 | 45.90868 | 8.81796 | 29851 ft | 515 kts | 156° |
| 2026-04-21 19:38 | 45.87682 | 8.84281 | 29297 ft | 508 kts | 156° |
| 2026-04-21 19:38 | 45.84650 | 8.86640 | 28774 ft | 501 kts | 156° |
| 2026-04-21 19:38 | 45.81633 | 8.88986 | 28270 ft | 494 kts | 156° |
| 2026-04-21 19:39 | 45.78625 | 8.91320 | 27855 ft | 488 kts | 156° |
| 2026-04-21 19:39 | 45.75620 | 8.93643 | 27596 ft | 496 kts | 156° |
| 2026-04-21 19:39 | 45.72552 | 8.96009 | 27096 ft | 505 kts | 156° |
| 2026-04-21 19:39 | 45.69388 | 8.98174 | 26460 ft | 501 kts | 165° |
| 2026-04-21 19:40 | 45.66059 | 8.99524 | 25587 ft | 493 kts | 178° |
| 2026-04-21 19:40 | 45.62727 | 8.99891 | 24838 ft | 479 kts | 189° |
| 2026-04-21 19:40 | 45.59401 | 8.99765 | 24173 ft | 475 kts | 190° |
| 2026-04-21 19:40 | 45.56110 | 8.99614 | 23509 ft | 471 kts | 190° |
| 2026-04-21 19:41 | 45.52850 | 8.99460 | 22840 ft | 465 kts | 190° |
| 2026-04-21 19:41 | 45.49640 | 8.99313 | 22295 ft | 457 kts | 189° |
| 2026-04-21 19:41 | 45.46545 | 8.99184 | 22713 ft | 420 kts | 190° |
| 2026-04-21 19:41 | 45.43614 | 8.99073 | 22885 ft | 429 kts | 191° |
| 2026-04-21 19:42 | 45.40590 | 8.98915 | 22976 ft | 439 kts | 190° |
| 2026-04-21 19:42 | 45.37529 | 8.98768 | 22976 ft | 439 kts | 190° |
| 2026-04-21 19:42 | 45.34516 | 8.98635 | 22975 ft | 438 kts | 190° |
| 2026-04-21 19:42 | 45.31466 | 8.98505 | 22972 ft | 438 kts | 190° |
| 2026-04-21 19:43 | 45.28420 | 8.98376 | 22961 ft | 437 kts | 190° |
| 2026-04-21 19:43 | 45.25377 | 8.98246 | 22961 ft | 437 kts | 190° |
| 2026-04-21 19:43 | 45.22334 | 8.98116 | 22961 ft | 437 kts | 190° |
| 2026-04-21 19:43 | 45.19298 | 8.97986 | 22954 ft | 436 kts | 190° |
| 2026-04-21 19:44 | 45.16264 | 8.97856 | 22958 ft | 435 kts | 189° |
| 2026-04-21 19:44 | 45.13274 | 8.97728 | 22958 ft | 435 kts | 189° |
| 2026-04-21 19:44 | 45.10264 | 8.97603 | 22955 ft | 425 kts | 189° |
| 2026-04-21 19:44 | 45.07369 | 8.97493 | 22967 ft | 407 kts | 190° |
| 2026-04-21 19:45 | 45.04600 | 8.97387 | 22957 ft | 389 kts | 190° |
| 2026-04-21 19:45 | 45.01952 | 8.97282 | 22954 ft | 372 kts | 191° |
| 2026-04-21 19:45 | 44.99418 | 8.97179 | 22966 ft | 356 kts | 191° |
| 2026-04-21 19:45 | 44.96997 | 8.97096 | 22955 ft | 342 kts | 188° |
| 2026-04-21 19:46 | 44.94645 | 8.97405 | 22962 ft | 339 kts | 180° |
| 2026-04-21 19:46 | 44.92287 | 8.97901 | 22957 ft | 345 kts | 181° |
| 2026-04-21 19:46 | 44.89902 | 8.98393 | 22957 ft | 345 kts | 180° |
| 2026-04-21 19:46 | 44.87556 | 8.98881 | 22956 ft | 343 kts | 180° |
| 2026-04-21 19:47 | 44.85196 | 8.99371 | 22956 ft | 343 kts | 180° |
| 2026-04-21 19:47 | 44.82843 | 8.99873 | 22696 ft | 341 kts | 180° |
| 2026-04-21 19:47 | 44.80508 | 9.00382 | 22241 ft | 338 kts | 180° |
| 2026-04-21 19:47 | 44.78196 | 9.00919 | 21706 ft | 335 kts | 179° |
| 2026-04-21 19:48 | 44.75897 | 9.01460 | 21175 ft | 332 kts | 179° |
| 2026-04-21 19:48 | 44.73655 | 9.01983 | 20606 ft | 330 kts | 179° |
| 2026-04-21 19:48 | 44.71395 | 9.02506 | 20092 ft | 326 kts | 179° |
| 2026-04-21 19:48 | 44.69164 | 9.03012 | 19640 ft | 322 kts | 179° |
| 2026-04-21 19:49 | 44.66962 | 9.03507 | 19138 ft | 319 kts | 179° |
| 2026-04-21 19:49 | 44.64774 | 9.03996 | 18615 ft | 317 kts | 179° |
| 2026-04-21 19:49 | 44.62591 | 9.04481 | 18031 ft | 316 kts | 179° |
| 2026-04-21 19:49 | 44.60434 | 9.04963 | 17542 ft | 310 kts | 179° |
| 2026-04-21 19:50 | 44.59028 | 9.05277 | 17243 ft | 307 kts | 179° |
| 2026-04-21 19:50 | 44.56246 | 9.05895 | 16534 ft | 303 kts | 178° |
| 2026-04-21 19:50 | 44.54177 | 9.06356 | 16038 ft | 300 kts | 178° |
| 2026-04-21 19:50 | 44.52128 | 9.06813 | 15560 ft | 296 kts | 178° |
| 2026-04-21 19:51 | 44.50091 | 9.07265 | 15104 ft | 293 kts | 177° |
| 2026-04-21 19:51 | 44.48083 | 9.07712 | 14626 ft | 290 kts | 177° |
| 2026-04-21 19:51 | 44.46093 | 9.08153 | 14164 ft | 287 kts | 176° |
| 2026-04-21 19:51 | 44.44150 | 9.08582 | 13730 ft | 285 kts | 176° |
| 2026-04-21 19:52 | 44.42206 | 9.09012 | 13275 ft | 282 kts | 176° |
| 2026-04-21 19:52 | 44.40277 | 9.09438 | 12800 ft | 279 kts | 176° |
| 2026-04-21 19:52 | 44.38360 | 9.09862 | 12309 ft | 277 kts | 175° |
| 2026-04-21 19:52 | 44.36449 | 9.10284 | 11816 ft | 277 kts | 175° |
| 2026-04-21 19:53 | 44.34562 | 9.10704 | 11352 ft | 273 kts | 175° |
| 2026-04-21 19:53 | 44.32691 | 9.11118 | 10878 ft | 270 kts | 174° |
| 2026-04-21 19:53 | 44.30839 | 9.11528 | 10419 ft | 267 kts | 174° |
| 2026-04-21 19:53 | 44.29035 | 9.11928 | 9967 ft | 265 kts | 174° |
| 2026-04-21 19:54 | 44.27229 | 9.12327 | 9493 ft | 262 kts | 174° |
| 2026-04-21 19:54 | 44.25439 | 9.12723 | 9016 ft | 259 kts | 173° |
| 2026-04-21 19:54 | 44.23662 | 9.13116 | 8531 ft | 257 kts | 173° |
| 2026-04-21 19:54 | 44.21967 | 9.13871 | 8046 ft | 257 kts | 153° |
| 2026-04-21 19:55 | 44.20503 | 9.15287 | 7584 ft | 255 kts | 143° |
| 2026-04-21 19:55 | 44.19106 | 9.16797 | 7181 ft | 251 kts | 143° |
| 2026-04-21 19:55 | 44.17759 | 9.18234 | 7017 ft | 237 kts | 143° |
| 2026-04-21 19:55 | 44.16635 | 9.19875 | 6857 ft | 232 kts | 117° |
| 2026-04-21 19:56 | 44.16273 | 9.22001 | 6642 ft | 226 kts | 83° |
| 2026-04-21 19:56 | 44.16804 | 9.24043 | 6533 ft | 226 kts | 50° |
| 2026-04-21 19:56 | 44.17988 | 9.25403 | 6412 ft | 221 kts | 21° |
| 2026-04-21 19:56 | 44.19472 | 9.25815 | 6294 ft | 217 kts | 354° |
| 2026-04-21 19:57 | 44.20962 | 9.25572 | 6121 ft | 215 kts | 352° |
| 2026-04-21 19:57 | 44.22450 | 9.25334 | 5816 ft | 215 kts | 352° |
| 2026-04-21 19:57 | 44.23903 | 9.25120 | 5697 ft | 204 kts | 353° |
| 2026-04-21 19:57 | 44.25263 | 9.24925 | 5566 ft | 196 kts | 353° |
| 2026-04-21 19:58 | 44.26610 | 9.24733 | 5300 ft | 194 kts | 353° |
| 2026-04-21 19:58 | 44.27953 | 9.24476 | 5016 ft | 194 kts | 343° |
| 2026-04-21 19:58 | 44.29166 | 9.23679 | 4724 ft | 194 kts | 323° |
| 2026-04-21 19:58 | 44.30216 | 9.22527 | 4534 ft | 190 kts | 322° |
| 2026-04-21 19:59 | 44.31286 | 9.21377 | 4516 ft | 195 kts | 322° |
| 2026-04-21 19:59 | 44.32359 | 9.20241 | 4521 ft | 192 kts | 323° |
| 2026-04-21 19:59 | 44.33378 | 9.19040 | 4547 ft | 193 kts | 311° |
| 2026-04-21 19:59 | 44.34032 | 9.17438 | 4527 ft | 193 kts | 288° |
| 2026-04-21 20:00 | 44.34413 | 9.15610 | 4509 ft | 194 kts | 288° |
| 2026-04-21 20:00 | 44.34834 | 9.13827 | 4351 ft | 194 kts | 287° |
| 2026-04-21 20:00 | 44.35220 | 9.12055 | 4076 ft | 192 kts | 287° |
| 2026-04-21 20:00 | 44.35608 | 9.10267 | 3804 ft | 191 kts | 287° |
| 2026-04-21 20:01 | 44.35993 | 9.08488 | 3536 ft | 191 kts | 287° |
| 2026-04-21 20:01 | 44.36377 | 9.06713 | 3271 ft | 190 kts | 287° |
| 2026-04-21 20:01 | 44.36760 | 9.04946 | 3005 ft | 190 kts | 287° |
| 2026-04-21 20:01 | 44.37141 | 9.03186 | 2749 ft | 189 kts | 287° |
| 2026-04-21 20:02 | 44.37521 | 9.01427 | 2468 ft | 188 kts | 287° |
| 2026-04-21 20:02 | 44.37885 | 8.99746 | 2211 ft | 172 kts | 287° |
| 2026-04-21 20:02 | 44.38213 | 8.98228 | 1983 ft | 154 kts | 287° |
| 2026-04-21 20:02 | 44.38516 | 8.96828 | 1764 ft | 154 kts | 287° |
| 2026-04-21 20:03 | 44.38822 | 8.95413 | 1545 ft | 151 kts | 287° |
| 2026-04-21 20:03 | 44.39125 | 8.94012 | 1329 ft | 150 kts | 287° |
| 2026-04-21 20:03 | 44.39424 | 8.92618 | 1115 ft | 149 kts | 287° |
| 2026-04-21 20:03 | 44.39722 | 8.91225 | 901 ft | 149 kts | 287° |
| 2026-04-21 20:04 | 44.40015 | 8.89840 | 686 ft | 148 kts | 287° |
| 2026-04-21 20:04 | 44.40300 | 8.88450 | 470 ft | 148 kts | 286° |
| 2026-04-21 20:04 | 44.40593 | 8.87104 | 296 ft | 143 kts | 288° |
| 2026-04-21 20:04 | 44.40867 | 8.85815 | 81 ft | 137 kts | 284° |
| 2026-04-21 20:05 | 44.41105 | 8.84642 | 20 ft | 101 kts | 287° |
| 2026-04-21 20:05 | 44.41242 | 8.83935 | 22 ft | 65 kts | 286° |
| 2026-04-21 20:05 | 44.41411 | 8.83646 | 19 ft | 32 kts | 19° |
| 2026-04-21 20:05 | 44.41413 | 8.83873 | 20 ft | 26 kts | 103° |
| 2026-04-21 20:06 | 44.41409 | 8.83906 | 18 ft | 0 kts | 98° |
| 2026-04-21 20:06 | 44.41398 | 8.83960 | 19 ft | 12 kts | 110° |
| 2026-04-21 20:06 | 44.41375 | 8.84068 | 17 ft | 7 kts | 105° |
| 2026-04-21 20:07 | 44.41360 | 8.84143 | 16 ft | 10 kts | 106° |
| 2026-04-21 20:07 | 44.41337 | 8.84253 | 17 ft | 13 kts | 106° |
| 2026-04-21 20:07 | 44.41321 | 8.84335 | 18 ft | 13 kts | 96° |
| 2026-04-21 20:07 | 44.41337 | 8.84430 | 18 ft | 6 kts | 52° |
| 2026-04-21 20:08 | 44.41372 | 8.84502 | 18 ft | 9 kts | 60° |
| 2026-04-21 20:08 | 44.41401 | 8.84566 | 18 ft | 9 kts | 57° |
| 2026-04-21 20:08 | 44.41443 | 8.84648 | 18 ft | 12 kts | 53° |
| 2026-04-21 20:08 | 44.41492 | 8.84743 | 18 ft | 7 kts | 77° |
| 2026-04-21 20:09 | 44.41487 | 8.84815 | 18 ft | 9 kts | 94° |
| 2026-04-21 20:09 | 44.41492 | 8.84913 | 18 ft | 11 kts | 95° |
| 2026-04-21 20:09 | 44.41485 | 8.84938 | 19 ft | 0 kts | 97° |
| 2026-04-21 20:09 | 44.41485 | 8.84939 | 19 ft | 0 kts | 91° |